Terminal Aerodrome Forecast
Issued by NWS

Current Version | Previous Version | Graphics & Text | Print | Product List | Glossary On
Versions: 1 2 3 4 5 6 7 8 9 10 11 12 13 14 15 16 17 18 19 20 21 22 23 24 25 26 27
000
FTUS41 KRLX 222010 AAA
TAFCKB
TAF AMD
KCKB 222010Z 2220/2318 22010G17KT P6SM VCTS BKN050CB
      TEMPO 2221/2224 2SM +TSRA BR OVC015CB
     FM230000 21004KT 5SM SHRA BR VCTS OVC013CB
     FM230500 22004KT P6SM OVC008
     FM230700 VRB03KT 4SM BR OVC003
     FM231100 VRB03KT 3SM BR SCT010
     FM231200 33004KT P6SM BKN015
     FM231500 34004KT P6SM SCT025=

USA.gov is the U.S. government's official web portal to all federal, state and local government web resources and services.